Time;durP1;ratioP1;P1;durP2;ratioP2;P2;SDS_P1;SDS_P2;PMS_P1;PMS_P2;Temp;Humidity;BMP_temperature;BMP_pressure;BME280_temperature;BME280_humidity;BME280_pressure;Samples;Min_cycle;Max_cycle;Signal;HPM_P1;HPM_P2
2022/01/12 00:01:14;;;;;;;395.15;131.57;;;;;;;-3.09;71.32;98814.23;1754915;81;27345;-82
2022/01/12 00:03:39;;;;;;;;;;;;;;;-3.09;71.20;98816.88;1757012;81;25807;-82
2022/01/12 00:06:06;;;;;;;163.07;69.55;;;;;;;-3.11;71.26;98815.64;1755045;81;25735;-82
2022/01/12 00:08:32;;;;;;;124.72;53.95;;;;;;;-3.11;71.21;98818.76;1769823;81;25782;-81
2022/01/12 00:11:01;;;;;;;125.47;53.48;;;;;;;-3.23;71.14;98815.53;1770157;81;25648;-81
2022/01/12 00:13:28;;;;;;;124.67;54.03;;;;;;;-3.35;71.19;98820.59;1770065;80;27362;-82
2022/01/12 00:15:55;;;;;;;135.37;56.73;;;;;;;-3.44;71.38;98817.19;1770005;80;25755;-81
2022/01/12 00:18:22;;;;;;;137.95;57.83;;;;;;;-3.42;71.45;98819.27;1770037;80;25734;-81
2022/01/12 00:20:50;;;;;;;129.70;53.78;;;;;;;-3.42;71.47;98823.23;1769938;80;25679;-82
2022/01/12 00:23:18;;;;;;;125.27;53.10;;;;;;;-3.41;71.55;98820.97;1770064;81;25655;-81
2022/01/12 00:26:07;;;;;;;141.55;55.05;;;;;;;-3.42;71.57;98825.88;1770106;81;27413;-81
2022/01/12 00:34:08;;;;;;;136.75;54.27;;;;;;;-3.34;71.68;98826.26;1770035;80;25789;-82
2022/01/12 00:36:37;;;;;;;136.47;52.55;;;;;;;-3.37;71.67;98826.44;1735782;81;25860;-81
2022/01/12 00:39:07;;;;;;;140.50;52.95;;;;;;;-3.43;71.62;98826.81;1735498;82;27458;-81
2022/01/12 00:41:37;;;;;;;122.67;48.85;;;;;;;-3.44;71.72;98823.79;1735882;81;25754;-81
2022/01/12 00:44:08;;;;;;;170.55;70.05;;;;;;;-3.46;71.71;98823.48;1735867;81;25718;-83
2022/01/12 00:46:35;;;;;;;215.03;102.22;;;;;;;-3.44;71.75;98830.39;1770050;80;25695;-82
2022/01/12 00:49:03;;;;;;;139.90;58.63;;;;;;;-3.41;71.75;98831.53;1770059;81;25708;-83
2022/01/12 00:51:32;;;;;;;187.40;61.70;;;;;;;-3.39;71.70;98831.45;1770032;81;28149;-83
2022/01/12 00:54:00;;;;;;;172.20;54.58;;;;;;;-3.37;71.69;98831.72;1735665;82;25757;-82
2022/01/12 00:56:27;;;;;;;129.60;49.75;;;;;;;-3.36;71.70;98832.09;1735773;81;25789;-82
2022/01/12 00:58:54;;;;;;;129.10;49.95;;;;;;;-3.34;71.70;98832.86;1735757;81;25837;-81
2022/01/12 01:01:22;;;;;;;119.40;47.40;;;;;;;-3.36;71.72;98828.61;1735737;82;25701;-82
2022/01/12 01:03:50;;;;;;;118.60;47.30;;;;;;;-3.35;71.78;98831.16;1735756;81;27358;-83
2022/01/12 01:06:17;;;;;;;124.95;47.35;;;;;;;-3.33;71.71;98831.92;1735633;81;25761;-82
2022/01/12 01:08:44;;;;;;;140.73;52.20;;;;;;;-3.35;71.70;98827.20;1741481;81;25251;-82
2022/01/12 01:11:12;;;;;;;149.10;53.78;;;;;;;-3.38;71.71;98824.73;1743852;82;25672;-82
2022/01/12 01:13:46;;;;;;;133.10;52.60;;;;;;;-3.38;71.72;98830.02;1743899;82;25617;-81
2022/01/12 01:16:18;;;;;;;149.75;51.37;;;;;;;-3.39;71.70;98821.73;1742689;81;27387;-83
2022/01/12 01:26:53;;;;;;;134.67;48.38;;;;;;;-3.41;71.72;98824.94;1743953;81;25744;-82
2022/01/12 01:29:20;;;;;;;144.00;53.63;;;;;;;-3.40;71.79;98821.36;1743889;82;27364;-83
2022/01/12 01:31:47;;;;;;;138.55;53.13;;;;;;;-3.38;71.80;98817.31;1743876;82;25822;-81
2022/01/12 01:34:16;;;;;;;126.30;48.92;;;;;;;-3.36;71.74;98822.86;1743635;82;25717;-82
2022/01/12 01:36:52;;;;;;;120.97;46.90;;;;;;;-3.35;71.78;98819.28;1743922;82;25822;-81
2022/01/12 01:39:23;;;;;;;121.55;48.30;;;;;;;-3.34;71.77;98814.84;1743667;82;25596;-80
2022/01/12 01:41:59;;;;;;;117.45;44.53;;;;;;;-3.34;71.81;98813.06;1735991;82;27362;-83
2022/01/12 01:55:11;;;;;;;110.60;43.48;;;;;;;-3.39;71.67;98815.61;1735744;82;27414;-83
2022/01/12 01:57:38;;;;;;;106.32;43.28;;;;;;;-3.43;71.75;98810.97;1735940;82;25818;-82
2022/01/12 02:00:10;;;;;;;96.87;40.38;;;;;;;-3.41;71.83;98812.20;1736021;82;25728;-82
2022/01/12 02:02:37;;;;;;;105.32;42.30;;;;;;;-3.44;71.75;98810.59;1736191;82;25772;-81
2022/01/12 02:05:05;;;;;;;99.62;41.20;;;;;;;-3.43;71.77;98810.97;1736029;82;25718;-82
2022/01/12 02:07:34;;;;;;;101.62;41.75;;;;;;;-3.43;71.68;98814.93;1735479;82;27346;-83
2022/01/12 02:10:07;;;;;;;112.40;44.53;;;;;;;-3.45;71.71;98815.48;1713345;82;25720;-83
2022/01/12 02:12:36;;;;;;;101.70;40.05;;;;;;;-3.42;71.69;98812.67;1669919;84;25809;-83
2022/01/12 02:15:12;;;;;;;106.12;40.75;;;;;;;-3.38;71.61;98811.53;1701188;84;25714;-82
2022/01/12 02:18:12;;;;;;;72.70;26.93;;;;;;;-3.39;71.53;98812.50;1701287;84;25866;-83
2022/01/12 02:40:40;;;;;;;76.60;31.62;;;;;;;-3.42;70.86;98812.67;1701235;84;25638;-81
2022/01/12 02:43:14;;;;;;;119.82;56.42;;;;;;;-3.40;70.89;98818.72;1700045;84;33304;-81
2022/01/12 02:53:41;;;;;;;80.45;33.28;;;;;;;-3.42;71.09;98817.95;1730436;82;25769;-81
2022/01/12 02:56:22;;;;;;;73.50;29.60;;;;;;;-3.41;71.06;98814.38;1730408;82;25839;-82
2022/01/12 02:58:51;;;;;;;68.20;26.05;;;;;;;-3.40;70.97;98810.80;1730474;82;25735;-81
2022/01/12 03:02:19;;;;;;;68.97;27.50;;;;;;;-3.48;70.80;98818.77;1730471;82;28182;-82
2022/01/12 03:03:53;;;;;;;50.73;21.93;;;;;;;-3.60;70.82;98821.65;1714593;82;25780;-81
2022/01/12 03:06:25;;;;;;;54.98;23.73;;;;;;;-3.67;70.73;98828.23;1730440;82;25874;-81
2022/01/12 03:08:52;;;;;;;54.90;22.35;;;;;;;-3.75;70.65;98826.52;1730560;82;25915;-82
2022/01/12 03:11:21;;;;;;;48.65;21.93;;;;;;;-3.75;70.66;98819.92;1739396;82;25724;-82
2022/01/12 03:13:49;;;;;;;50.05;20.37;;;;;;;-3.76;70.52;98816.42;1739388;82;27403;-81
2022/01/12 03:16:19;;;;;;;46.90;19.95;;;;;;;-3.81;70.29;98820.25;1739230;82;25773;-81
2022/01/12 03:18:49;;;;;;;45.43;18.92;;;;;;;-3.96;70.29;98824.61;1739483;82;25777;-82
2022/01/12 03:21:20;;;;;;;52.78;21.17;;;;;;;-4.04;70.29;98834.75;1739502;82;25736;-81
2022/01/12 03:23:47;;;;;;;48.65;20.70;;;;;;;-4.19;70.33;98832.49;1737673;82;25816;-81
2022/01/12 03:26:14;;;;;;;44.23;19.27;;;;;;;-4.17;70.52;98834.58;1739585;82;27370;-81
2022/01/12 03:28:42;;;;;;;39.33;18.52;;;;;;;-4.12;70.59;98840.46;1739478;82;25783;-81
2022/01/12 03:31:19;;;;;;;47.55;19.12;;;;;;;-4.09;70.60;98829.72;1739536;82;25740;-83
2022/01/12 03:36:41;;;;;;;46.13;20.17;;;;;;;-4.14;70.39;98838.84;1739542;82;25748;-81
2022/01/12 03:39:04;;;;;;;46.28;20.02;;;;;;;-4.15;70.40;98845.05;1737124;82;27076;-81
2022/01/12 03:41:35;;;;;;;46.30;20.95;;;;;;;-4.11;70.49;98839.53;1739428;82;25712;-81
2022/01/12 03:44:06;;;;;;;47.70;20.75;;;;;;;-4.03;70.43;98835.13;1739519;82;25775;-81
2022/01/12 03:46:44;;;;;;;36.87;14.97;;;;;;;-3.95;70.46;98827.63;1739721;82;25824;-82
2022/01/12 03:49:09;;;;;;;49.35;22.65;;;;;;;-3.92;70.32;98835.37;1734848;82;25684;-81
2022/01/12 03:51:36;;;;;;;60.05;27.13;;;;;;;-3.93;70.29;98824.91;1739415;82;28267;-82
2022/01/12 03:54:03;;;;;;;45.30;19.02;;;;;;;-3.89;70.35;98827.77;1739351;82;25792;-83
2022/01/12 03:56:30;;;;;;;41.98;17.85;;;;;;;-3.93;70.20;98828.86;1739403;82;25667;-82
2022/01/12 03:58:56;;;;;;;43.65;18.67;;;;;;;-3.95;70.13;98828.09;1739484;82;25734;-82
2022/01/12 04:01:23;;;;;;;45.38;19.17;;;;;;;-3.95;70.09;98821.50;1739519;82;25740;-81
2022/01/12 04:04:00;;;;;;;44.27;19.67;;;;;;;-3.96;70.07;98816.69;1739418;82;28157;-82
2022/01/12 04:09:03;;;;;;;47.78;20.02;;;;;;;-3.91;70.15;98819.08;1739115;82;25779;-83
2022/01/12 04:11:30;;;;;;;54.60;21.97;;;;;;;-3.85;70.11;98817.40;1739439;82;25796;-83
2022/01/12 04:13:57;;;;;;;61.48;25.72;;;;;;;-3.84;69.91;98825.23;1739516;82;25665;-81
2022/01/12 04:16:24;;;;;;;63.85;27.20;;;;;;;-3.80;69.98;98825.91;1739442;82;27407;-83
2022/01/12 04:18:50;;;;;;;48.20;22.75;;;;;;;-3.85;69.83;98816.93;1739296;82;25750;-82
2022/01/12 04:21:24;;;;;;;44.70;18.65;;;;;;;-3.88;69.75;98812.32;1739446;82;25837;-83
2022/01/12 04:23:46;;;;;;;35.98;17.00;;;;;;;-3.89;69.78;98814.58;1738207;82;26494;-82
2022/01/12 04:26:14;;;;;;;61.95;27.93;;;;;;;-3.91;69.68;98809.38;1739535;82;25788;-81
2022/01/12 04:28:43;;;;;;;87.47;30.05;;;;;;;-3.87;69.77;98807.43;1739441;82;27376;-81
2022/01/12 04:31:12;;;;;;;52.85;19.02;;;;;;;-3.83;69.75;98812.42;1739308;82;25792;-81
2022/01/12 04:33:41;;;;;;;60.38;20.27;;;;;;;-3.81;69.66;98805.27;1739529;82;25796;-81
2022/01/12 04:36:10;;;;;;;41.98;17.02;;;;;;;-3.82;69.51;98806.21;1739408;82;26398;-82
2022/01/12 04:38:39;;;;;;;42.93;17.42;;;;;;;-3.81;69.44;98807.06;1739397;82;25594;-81
2022/01/12 04:41:09;;;;;;;37.95;17.67;;;;;;;-3.79;69.41;98819.23;1739447;82;27386;-82
2022/01/12 04:43:39;;;;;;;85.07;39.38;;;;;;;-3.76;69.43;98820.39;1739339;82;26304;-82
2022/01/12 04:48:48;;;;;;;37.63;16.15;;;;;;;-3.77;69.22;98821.79;1739255;82;26325;-82
2022/01/12 04:51:04;;;;;;;41.60;20.35;;;;;;;-3.79;69.13;98819.70;1736277;82;25761;-83
2022/01/12 04:53:32;;;;;;;39.67;19.15;;;;;;;-3.80;69.08;98815.36;1738500;82;27463;-83
2022/01/12 04:55:59;;;;;;;41.58;21.10;;;;;;;-3.80;69.09;98818.00;1691570;83;25856;-82
2022/01/12 04:58:27;;;;;;;34.10;16.25;;;;;;;-3.79;69.04;98820.55;1723199;82;25716;-83
2022/01/12 05:01:03;;;;;;;35.83;17.62;;;;;;;-3.86;68.93;98828.42;1739431;82;25647;-80
2022/01/12 05:09:13;;;;;;;39.13;18.27;;;;;;;-3.94;68.85;98837.72;1741115;81;25798;-83
2022/01/12 05:14:21;;;;;;;50.58;21.65;;;;;;;-3.89;69.02;98837.00;1760253;81;25904;-81
2022/01/12 05:16:47;;;;;;;69.10;26.77;;;;;;;-3.89;68.97;98837.00;1760314;81;26440;-83
2022/01/12 05:19:14;;;;;;;56.70;25.17;;;;;;;-3.86;68.87;98839.44;1760309;81;27344;-82
2022/01/12 05:21:41;;;;;;;57.17;24.30;;;;;;;-3.91;68.83;98841.04;1760314;81;25720;-82
2022/01/12 05:24:10;;;;;;;63.08;26.25;;;;;;;-3.91;68.83;98843.67;1760336;81;25744;-83
2022/01/12 05:26:37;;;;;;;48.08;20.65;;;;;;;-3.89;68.82;98847.08;1760237;81;26531;-82
2022/01/12 05:29:04;;;;;;;41.90;19.32;;;;;;;-3.87;68.78;98847.85;1760258;81;25665;-80
2022/01/12 05:31:32;;;;;;;47.50;20.80;;;;;;;-3.86;68.75;98849.53;1760193;81;27405;-82
2022/01/12 05:34:00;;;;;;;49.80;20.70;;;;;;;-3.82;68.77;98846.25;1760102;81;25724;-82
2022/01/12 05:36:30;;;;;;;46.10;20.60;;;;;;;-3.78;68.78;98853.07;1760235;81;26513;-82
2022/01/12 05:38:55;;;;;;;52.55;23.02;;;;;;;-3.78;68.64;98843.83;1760005;80;26452;-80
2022/01/12 05:41:22;;;;;;;52.98;24.90;;;;;;;-3.80;68.62;98846.55;1760236;81;25618;-81
2022/01/12 05:43:49;;;;;;;58.28;27.82;;;;;;;-3.83;68.66;98851.14;1760331;81;27342;-81
2022/01/12 05:46:21;;;;;;;85.53;43.25;;;;;;;-3.82;68.76;98846.25;1760027;81;25900;-82
2022/01/12 05:51:30;;;;;;;52.13;26.20;;;;;;;-3.80;68.82;98857.11;1729628;82;25808;-83
2022/01/12 05:53:57;;;;;;;45.23;21.45;;;;;;;-3.87;68.70;98858.41;1729877;82;25776;-82
2022/01/12 05:56:24;;;;;;;46.02;20.68;;;;;;;-4.01;68.64;98859.17;1729711;82;27980;-83
2022/01/12 05:58:52;;;;;;;48.35;22.77;;;;;;;-4.01;68.84;98869.72;1729500;82;25740;-82
2022/01/12 06:01:19;;;;;;;44.77;21.52;;;;;;;-4.01;68.94;98871.05;1729917;82;25279;-83
2022/01/12 06:03:46;;;;;;;42.90;20.60;;;;;;;-4.07;68.86;98870.52;1729703;82;26367;-82
2022/01/12 06:06:13;;;;;;;46.73;20.82;;;;;;;-4.10;68.94;98872.00;1729906;82;25696;-82
2022/01/12 06:08:39;;;;;;;42.35;19.40;;;;;;;-4.16;69.03;98873.67;1729804;82;27543;-82
2022/01/12 06:11:07;;;;;;;55.88;23.30;;;;;;;-4.23;68.91;98884.18;1738616;81;25694;-83
2022/01/12 06:13:33;;;;;;;44.98;20.08;;;;;;;-4.27;69.08;98886.13;1765345;80;25808;-82
2022/01/12 06:16:00;;;;;;;45.43;19.73;;;;;;;-4.30;69.16;98891.55;1731180;81;25841;-82
2022/01/12 06:18:27;;;;;;;42.50;19.87;;;;;;;-4.39;69.13;98890.27;1757441;80;25643;-82
2022/01/12 06:20:53;;;;;;;47.05;20.15;;;;;;;-4.40;69.23;98899.58;1757336;81;27144;-82
2022/01/12 06:23:20;;;;;;;46.90;20.25;;;;;;;-4.46;69.20;98902.06;1757518;81;25634;-81
2022/01/12 06:25:46;;;;;;;40.80;17.82;;;;;;;-4.47;69.28;98906.95;1757479;80;25687;-82
2022/01/12 06:31:10;;;;;;;45.50;20.08;;;;;;;-4.57;69.32;98898.30;1757373;81;25757;-82
2022/01/12 06:33:47;;;;;;;44.60;21.02;;;;;;;-4.58;69.41;98903.17;1757348;81;27363;-83
2022/01/12 06:36:17;;;;;;;40.98;19.85;;;;;;;-4.63;69.49;98909.17;1757342;81;25709;-82
2022/01/12 06:38:46;;;;;;;50.50;24.32;;;;;;;-4.57;69.59;98917.59;1757244;81;25725;-83
2022/01/12 06:41:14;;;;;;;47.33;21.20;;;;;;;-4.47;69.78;98917.98;1766451;80;26307;-83
2022/01/12 06:43:42;;;;;;;45.58;22.02;;;;;;;-4.44;69.68;98919.11;1760962;79;25773;-82
2022/01/12 06:46:09;;;;;;;48.00;22.90;;;;;;;-4.54;69.62;98919.22;1757271;81;28203;-83
2022/01/12 06:48:35;;;;;;;43.40;19.82;;;;;;;-4.57;69.69;98916.74;1757129;80;26072;-83
2022/01/12 06:51:03;;;;;;;46.83;20.62;;;;;;;-4.57;69.80;98914.95;1753232;81;25730;-83
2022/01/12 06:53:32;;;;;;;46.25;21.70;;;;;;;-4.49;69.81;98913.26;1757366;81;26628;-82
2022/01/12 06:55:59;;;;;;;48.52;22.32;;;;;;;-4.41;69.67;98909.73;1757600;81;25766;-83
2022/01/12 06:58:26;;;;;;;58.92;26.37;;;;;;;-4.33;69.60;98914.13;1757413;80;28314;-82
2022/01/12 07:00:53;;;;;;;45.35;21.57;;;;;;;-4.28;69.64;98910.78;1760124;80;25855;-83
2022/01/12 07:03:19;;;;;;;37.80;19.15;;;;;;;-4.26;69.58;98912.02;1780929;79;25758;-83
2022/01/12 07:05:47;;;;;;;38.78;19.02;;;;;;;-4.29;69.43;98914.35;1765101;79;25660;-83
2022/01/12 07:08:14;;;;;;;45.50;23.30;;;;;;;-4.27;69.41;98923.50;1770110;79;25237;-83
2022/01/12 07:10:42;;;;;;;47.98;23.10;;;;;;;-4.25;69.45;98926.45;1746321;81;27516;-83
2022/01/12 07:13:13;;;;;;;51.83;22.70;;;;;;;-4.20;69.48;98927.03;1733255;82;25841;-83
2022/01/12 07:15:41;;;;;;;50.67;23.60;;;;;;;-4.17;69.45;98925.55;1733232;82;25763;-83
2022/01/12 07:18:08;;;;;;;44.53;21.50;;;;;;;-4.16;69.43;98928.58;1733018;82;25863;-83
2022/01/12 07:20:35;;;;;;;54.70;26.20;;;;;;;-4.13;69.42;98940.75;1770488;81;25674;-82
2022/01/12 07:23:02;;;;;;;55.43;24.63;;;;;;;-4.12;69.35;98946.42;1770436;81;27554;-83
2022/01/12 07:25:28;;;;;;;46.05;19.73;;;;;;;-4.10;69.28;98945.38;1770336;79;25718;-82
2022/01/12 07:27:55;;;;;;;49.73;21.30;;;;;;;-4.13;69.24;98946.03;1739745;82;25752;-83
2022/01/12 07:30:24;;;;;;;39.30;18.98;;;;;;;-4.18;69.12;98946.27;1739662;82;25853;-83
2022/01/12 07:32:52;;;;;;;37.65;17.12;;;;;;;-4.28;69.09;98942.42;1752479;81;26330;-83
2022/01/12 07:35:18;;;;;;;34.23;16.42;;;;;;;-4.44;69.00;98950.75;1739448;82;27597;-82
2022/01/12 07:37:46;;;;;;;35.63;17.25;;;;;;;-4.59;68.93;98952.42;1768794;81;25673;-83
2022/01/12 07:40:13;;;;;;;41.75;18.75;;;;;;;-4.74;69.04;98953.21;1748091;80;25202;-83
2022/01/12 07:42:40;;;;;;;41.73;18.42;;;;;;;-4.79;69.24;98958.70;1739709;82;25656;-83
2022/01/12 07:45:07;;;;;;;43.85;18.98;;;;;;;-4.81;69.33;98958.39;1739498;82;25754;-82
2022/01/12 07:47:33;;;;;;;39.98;17.87;;;;;;;-4.80;69.47;98960.95;1739647;82;28138;-83
2022/01/12 07:50:01;;;;;;;39.83;17.35;;;;;;;-4.79;69.52;98951.27;1756674;81;26537;-83
2022/01/12 07:52:30;;;;;;;37.75;17.82;;;;;;;-4.83;69.44;98949.23;1739662;82;25690;-82
2022/01/12 07:54:58;;;;;;;38.10;18.40;;;;;;;-4.90;69.51;98955.77;1739602;82;26425;-83
2022/01/12 07:57:24;;;;;;;34.95;17.73;;;;;;;-4.86;69.66;98953.38;1750874;81;25757;-83
2022/01/12 07:59:51;;;;;;;35.17;17.12;;;;;;;-4.85;69.58;98957.72;1740726;81;28242;-83
2022/01/12 08:02:17;;;;;;;40.58;17.70;;;;;;;-4.88;69.57;98965.77;1739464;82;26320;-83
2022/01/12 08:04:44;;;;;;;37.48;17.20;;;;;;;-4.85;69.58;98967.39;1739578;81;25264;-82
2022/01/12 08:07:11;;;;;;;37.15;17.80;;;;;;;-4.81;69.50;98967.61;1760565;81;25665;-83
2022/01/12 08:09:40;;;;;;;39.38;18.02;;;;;;;-4.78;69.61;98966.14;1739963;80;25766;-82
2022/01/12 08:12:08;;;;;;;38.05;16.80;;;;;;;-4.67;69.53;98962.95;1764881;81;27541;-83
2022/01/12 08:14:35;;;;;;;37.33;18.15;;;;;;;-4.58;69.40;98962.00;1771184;80;25785;-83
2022/01/12 08:17:03;;;;;;;98.35;25.12;;;;;;;-4.50;69.38;98960.31;1785444;80;25327;-82
2022/01/12 08:19:33;;;;;;;49.53;20.00;;;;;;;-4.43;69.29;98961.67;1785366;80;25831;-83
2022/01/12 08:21:58;;;;;;;37.38;16.82;;;;;;;-4.35;69.25;98965.60;1774295;80;25731;-83
2022/01/12 08:24:25;;;;;;;34.05;16.40;;;;;;;-4.31;69.02;98974.22;1785354;80;27326;-83
2022/01/12 08:26:51;;;;;;;35.08;16.07;;;;;;;-4.29;68.98;98965.77;1785306;80;25712;-82
2022/01/12 08:29:18;;;;;;;45.63;18.25;;;;;;;-4.29;68.77;98972.35;1777915;79;25742;-82
2022/01/12 08:31:46;;;;;;;38.78;17.45;;;;;;;-4.24;68.84;98974.30;1769958;81;26436;-83
2022/01/12 08:34:13;;;;;;;36.08;16.67;;;;;;;-4.20;68.65;98981.09;1769861;80;26384;-83
2022/01/12 08:36:42;;;;;;;34.67;16.35;;;;;;;-4.24;68.38;98986.16;1774078;80;28166;-83
2022/01/12 08:39:09;;;;;;;38.60;16.07;;;;;;;-4.30;68.34;98985.15;1767559;79;25846;-83
2022/01/12 08:41:38;;;;;;;35.30;18.07;;;;;;;-4.28;68.44;98983.29;1738298;81;25736;-83
2022/01/12 08:44:09;;;;;;;35.60;18.87;;;;;;;-4.21;68.55;98988.61;1733771;81;25910;-83
2022/01/12 08:46:38;;;;;;;42.33;18.42;;;;;;;-4.16;68.52;98983.95;1730752;82;33619;-83
2022/01/12 08:49:05;;;;;;;38.25;18.73;;;;;;;-4.11;68.43;98984.58;1730192;82;27411;-82
2022/01/12 08:51:32;;;;;;;39.75;17.95;;;;;;;-4.10;68.32;98978.80;1722471;83;25810;-83
2022/01/12 08:53:59;;;;;;;38.98;18.48;;;;;;;-4.08;68.28;98984.86;1722588;83;25713;-84
2022/01/12 08:56:26;;;;;;;40.83;19.23;;;;;;;-4.04;68.31;98989.90;1723068;83;25856;-83
2022/01/12 08:58:52;;;;;;;41.50;19.98;;;;;;;-3.99;68.27;98990.98;1723038;83;26280;-83
2022/01/12 09:01:20;;;;;;;38.28;18.50;;;;;;;-3.93;68.19;98988.46;1722910;83;27351;-83
2022/01/12 09:03:47;;;;;;;39.73;19.77;;;;;;;-3.92;68.20;98979.62;1722907;83;26350;-83
2022/01/12 09:06:14;;;;;;;38.15;18.48;;;;;;;-3.92;68.26;98975.66;1722428;83;25685;-83
2022/01/12 09:08:44;;;;;;;51.95;24.30;;;;;;;-3.90;68.22;98973.80;1722984;83;26603;-83
2022/01/12 09:11:13;;;;;;;50.23;23.12;;;;;;;-3.88;68.21;98977.20;1735985;81;25819;-82
2022/01/12 09:13:40;;;;;;;52.10;22.55;;;;;;;-3.84;68.25;98980.89;1744622;82;28160;-83
2022/01/12 09:16:08;;;;;;;46.25;22.27;;;;;;;-3.81;68.18;98978.56;1709529;83;25996;-83
2022/01/12 09:18:36;;;;;;;40.08;18.55;;;;;;;-3.78;68.18;98983.68;1745443;81;26366;-82
2022/01/12 09:21:04;;;;;;;41.68;20.60;;;;;;;-3.81;67.95;98971.97;1749177;81;25915;-82
2022/01/12 09:23:30;;;;;;;42.65;20.55;;;;;;;-3.83;67.99;98965.92;1749245;82;25730;-82
2022/01/12 09:25:57;;;;;;;39.58;19.92;;;;;;;-3.80;68.08;98965.76;1748182;82;27426;-82
2022/01/12 09:28:24;;;;;;;39.75;19.40;;;;;;;-3.75;68.07;98970.33;1749117;82;25650;-82
2022/01/12 09:30:54;;;;;;;38.75;19.00;;;;;;;-3.74;67.95;98969.36;1724093;82;25809;-82
2022/01/12 09:33:21;;;;;;;45.65;18.10;;;;;;;-3.72;67.89;98970.98;1719288;83;25724;-82
2022/01/12 09:35:49;;;;;;;36.08;16.85;;;;;;;-3.71;67.79;98970.05;1721669;82;25695;-83
2022/01/12 09:38:18;;;;;;;38.88;19.50;;;;;;;-3.79;67.55;98967.46;1734711;81;28211;-83
2022/01/12 09:40:46;;;;;;;39.20;18.80;;;;;;;-3.92;67.53;98971.70;1728792;82;25811;-82
2022/01/12 09:43:13;;;;;;;37.45;19.35;;;;;;;-3.96;67.63;98972.33;1717273;82;25280;-83
2022/01/12 09:45:43;;;;;;;37.88;18.42;;;;;;;-3.98;67.63;98966.78;1722686;82;25715;-83
2022/01/12 09:48:10;;;;;;;36.50;18.30;;;;;;;-3.95;67.71;98958.67;1704174;82;43843;-82
2022/01/12 09:50:37;;;;;;;36.60;17.42;;;;;;;-3.88;67.65;98964.02;1708647;82;27384;-82
2022/01/12 09:53:04;;;;;;;38.75;17.75;;;;;;;-3.91;67.41;98960.22;1729043;82;25684;-83
2022/01/12 09:55:30;;;;;;;38.15;18.37;;;;;;;-4.01;67.47;98952.81;1716070;82;25781;-83
2022/01/12 09:57:57;;;;;;;38.88;18.60;;;;;;;-3.97;67.66;98949.52;1704841;82;25707;-83
2022/01/12 10:00:26;;;;;;;42.15;19.37;;;;;;;-3.92;67.60;98949.28;1728899;82;25672;-83
2022/01/12 10:02:53;;;;;;;57.50;25.57;;;;;;;-3.86;67.58;98947.61;1734126;82;27363;-83
2022/01/12 10:05:31;;;;;;;53.70;22.67;;;;;;;-3.80;67.41;98950.78;1733926;82;25815;-82
2022/01/12 10:08:16;;;;;;;44.53;20.92;;;;;;;-3.77;67.32;98956.36;1734067;82;25911;-82
2022/01/12 10:10:50;;;;;;;38.95;18.45;;;;;;;-3.77;67.32;98944.48;1730048;82;25761;-81
2022/01/12 10:13:23;;;;;;;33.10;15.45;;;;;;;-3.76;67.14;98946.19;1693002;83;25515;-83
2022/01/12 10:15:50;;;;;;;37.35;18.40;;;;;;;-3.79;67.07;98940.61;1711217;83;27534;-83
2022/01/12 10:18:18;;;;;;;39.15;17.73;;;;;;;-3.96;66.79;98939.81;1716939;83;26454;-82
2022/01/12 10:20:47;;;;;;;32.98;17.92;;;;;;;-4.11;66.84;98941.53;1707573;83;25776;-82
2022/01/12 10:23:15;;;;;;;35.70;17.85;;;;;;;-4.14;67.12;98939.91;1702815;83;26587;-82
2022/01/12 10:25:48;;;;;;;38.00;17.70;;;;;;;-4.24;67.08;98932.58;1717866;83;25741;-82
2022/01/12 10:28:21;;;;;;;35.30;17.12;;;;;;;-4.37;67.11;98925.32;1712841;83;26827;-82
2022/01/12 10:30:57;;;;;;;35.30;17.85;;;;;;;-4.42;67.14;98915.47;1688923;84;25865;-83
2022/01/12 10:33:28;;;;;;;35.48;18.00;;;;;;;-4.40;67.28;98914.08;1715371;83;25801;-83
2022/01/12 10:35:59;;;;;;;40.23;19.03;;;;;;;-4.37;67.23;98913.92;1718182;83;25690;-83
2022/01/12 10:38:26;;;;;;;35.10;17.52;;;;;;;-4.29;67.34;98926.68;1717946;83;25671;-83
2022/01/12 10:41:01;;;;;;;36.95;18.65;;;;;;;-4.31;66.96;98918.00;1702013;83;27381;-83
2022/01/12 10:43:41;;;;;;;32.85;16.82;;;;;;;-4.29;67.26;98915.67;1717238;83;25731;-82
2022/01/12 10:46:20;;;;;;;37.48;19.42;;;;;;;-4.21;67.37;98916.09;1717989;82;25696;-83
2022/01/12 10:48:50;;;;;;;39.08;19.40;;;;;;;-4.20;67.34;98909.04;1717881;82;25852;-82
2022/01/12 10:51:21;;;;;;;36.88;17.42;;;;;;;-4.24;67.18;98904.42;1717885;83;25745;-82
2022/01/12 10:53:51;;;;;;;38.73;16.85;;;;;;;-4.21;67.29;98900.27;1717266;83;28156;-82
2022/01/12 10:56:22;;;;;;;39.55;19.57;;;;;;;-4.20;67.34;98902.45;1708654;83;26512;-82
2022/01/12 10:58:52;;;;;;;44.53;20.50;;;;;;;-4.30;67.07;98902.10;1717339;83;25724;-83
2022/01/12 11:01:22;;;;;;;47.15;22.20;;;;;;;-4.42;67.13;98901.44;1711049;83;25743;-82
2022/01/12 11:03:49;;;;;;;34.03;16.57;;;;;;;-4.41;67.42;98902.68;1718065;83;25749;-82
2022/01/12 11:06:16;;;;;;;42.13;19.65;;;;;;;-4.38;67.38;98906.95;1717762;83;27405;-83
2022/01/12 11:08:47;;;;;;;44.33;20.43;;;;;;;-4.29;67.40;98905.59;1717774;83;25284;-82
2022/01/12 11:11:13;;;;;;;43.90;22.45;;;;;;;-4.24;67.37;98907.06;1696273;83;25718;-83
2022/01/12 11:13:39;;;;;;;48.28;22.35;;;;;;;-4.15;67.40;98911.83;1683407;85;25688;-82
2022/01/12 11:16:06;;;;;;;40.95;18.48;;;;;;;-4.07;67.25;98911.39;1717807;83;25808;-82
2022/01/12 11:18:35;;;;;;;37.17;16.60;;;;;;;-4.13;67.04;98923.15;1702900;83;27514;-82
2022/01/12 11:21:10;;;;;;;41.15;18.40;;;;;;;-4.22;66.83;98915.70;1717765;83;25772;-82
2022/01/12 11:23:42;;;;;;;37.65;18.62;;;;;;;-4.17;66.99;98912.84;1717286;83;26275;-82
2022/01/12 11:26:18;;;;;;;37.70;19.35;;;;;;;-4.09;67.07;98906.20;1693818;83;25918;-83
2022/01/12 11:28:46;;;;;;;35.52;18.45;;;;;;;-4.03;67.04;98904.56;1711264;82;25814;-84
2022/01/12 11:31:18;;;;;;;42.48;19.90;;;;;;;-3.93;67.09;98907.53;1663036;84;27458;-83
2022/01/12 11:33:45;;;;;;;34.35;17.55;;;;;;;-3.86;66.83;98899.66;1711128;83;25276;-82
2022/01/12 11:36:25;;;;;;;40.80;19.52;;;;;;;-3.86;66.66;98904.08;1689000;84;25679;-83
2022/01/12 11:39:05;;;;;;;43.98;20.85;;;;;;;-3.80;66.70;98909.03;1695447;83;27532;-83
2022/01/12 11:41:35;;;;;;;43.85;22.00;;;;;;;-3.79;66.57;98902.34;1703091;83;25277;-83
2022/01/12 11:44:10;;;;;;;45.30;22.82;;;;;;;-3.75;66.52;98896.44;1693486;83;27398;-82
2022/01/12 11:46:57;;;;;;;38.33;20.15;;;;;;;-3.70;66.64;98891.73;1695074;83;25762;-83
2022/01/12 11:49:30;;;;;;;47.58;22.75;;;;;;;-3.66;66.48;98906.47;1717472;83;25769;-83
2022/01/12 11:51:59;;;;;;;41.70;20.08;;;;;;;-3.65;66.46;98903.75;1717754;83;26364;-83
2022/01/12 11:54:33;;;;;;;48.98;24.40;;;;;;;-3.65;66.32;98901.11;1692336;83;25737;-82
2022/01/12 11:57:06;;;;;;;59.33;26.20;;;;;;;-3.66;66.21;98902.52;1705446;83;29140;-81
2022/01/12 11:59:56;;;;;;;126.92;38.28;;;;;;;-3.58;66.23;98901.59;1686030;84;25800;-82
2022/01/12 12:02:48;;;;;;;66.33;24.70;;;;;;;-3.64;66.11;98894.05;1683339;84;25695;-82
2022/01/12 12:05:18;;;;;;;50.23;25.27;;;;;;;-3.62;66.16;98889.03;1689467;83;25719;-81
2022/01/12 12:07:52;;;;;;;46.15;21.48;;;;;;;-3.65;66.12;98897.62;1709048;83;25701;-82
2022/01/12 12:10:26;;;;;;;36.73;17.92;;;;;;;-3.55;66.22;98897.47;1683098;85;27402;-82
2022/01/12 12:12:55;;;;;;;45.05;20.60;;;;;;;-3.50;66.03;98894.08;1705811;83;25679;-82
2022/01/12 12:15:23;;;;;;;41.53;18.85;;;;;;;-3.52;65.98;98892.50;1718293;83;25703;-82
2022/01/12 12:17:53;;;;;;;53.58;24.27;;;;;;;-3.51;65.99;98896.37;1716263;83;26401;-82
2022/01/12 12:20:23;;;;;;;51.02;23.92;;;;;;;-3.50;65.92;98896.72;1710284;83;25720;-83
2022/01/12 12:22:51;;;;;;;52.25;25.77;;;;;;;-3.51;65.97;98891.09;1718715;83;27370;-83
2022/01/12 12:25:27;;;;;;;92.67;39.88;;;;;;;-3.49;66.02;98898.43;1710257;83;26039;-83
2022/01/12 12:28:01;;;;;;;93.27;41.73;;;;;;;-3.45;65.95;98892.05;1713702;83;25908;-83
2022/01/12 12:30:31;;;;;;;59.65;27.50;;;;;;;-3.41;65.89;98886.13;1725170;83;26468;-82
2022/01/12 12:33:08;;;;;;;63.02;27.62;;;;;;;-3.41;65.83;98880.37;1725598;83;25788;-81
2022/01/12 12:35:37;;;;;;;62.03;25.23;;;;;;;-3.40;65.83;98883.88;1735789;81;27995;-83
2022/01/12 12:38:13;;;;;;;58.02;25.25;;;;;;;-3.43;65.69;98882.25;1725276;83;25897;-82
2022/01/12 12:40:50;;;;;;;57.00;26.25;;;;;;;-3.49;65.82;98881.27;1769562;80;25745;-82